Ana Sayfa
METAR-TAF:

METAR-TAF

Havaalanları :

Alor Setar, Malezya

Enlem: 06-11-40N, Boylam: 100-24-03E, yükseklik: 5 m

Güncel hava durumu gözlemi

Rapor saat 15:00 UTC de 39 dakika önce yapıldı.
Sakin rüzgar
Sıcaklık 27°C
Nem 89%
Basınç 1011 hPa
Görüş mesafesi 10 km veya daha fazla
2800 ft yükseklikte az bulutlu
14000 ft yükseklikte parçalı bulutlu
28000 ft yükseklikte parçalı çok bulutlu

METAR: WMKA 211500Z 00000KT 9999 FEW028 SCT140 BKN280 27/25 Q1011

Saat: 23:39 (15:39 UTC)

Tahmin

Rapor saat 11:00 UTC de 4 saat ve 39 dakika önce yapıldı.
Ayın 21'si saat 12 UTC'den ayın 22'si saat 12 UTC'ye kadar geçerli Tahmin
Rüzgar değişken yönden 3 kt
Görüş mesafesi 10 km veya daha fazla
3000 ft yükseklikte az bulutlu
Dönüşüyor
ayın 22'si saat 00 UTC'den ayın 22'si saat 02 UTC'ye kadar
Görüş mesafesi: 9000 m
2000 ft yükseklikte az bulutlu

TAF: WMKA 211100Z 2112/2212 VRB03KT 9999 FEW030 BECMG 2200/2202 9000 FEW020

4.000'den fazla havaalanı için hava durumu gözlemleri ve tahminleri (METAR ve TAF raporları).

Kullanılabilir istasyonlar harita üzerinde sarı ve kırmızı noktalarla gösterilir.

İstasyonun adını görmek için fareyi noktanın üzerinde gezdirin.

Sonrasında hava gözlem ve tahminlerini görmek için tıklayın.

Haritayı değiştirmek için: yaklaştırmak için siyah artı işaretli yeşil düğmeye ve uzaklaştırmak için de eksi işaretli düğmeye hızla tıklayın; bitişik haritalar için yeşil okları kullanın.


METAR-TAF: